createdAt,value
2022-11-24T00:00:58.508Z,29.93
2022-11-24T00:03:03.642Z,29.93
2022-11-24T00:05:08.333Z,29.89
2022-11-24T00:07:13.124Z,29.9
2022-11-24T00:09:17.727Z,30.14
2022-11-24T00:11:22.324Z,30.18
2022-11-24T00:13:26.901Z,30.16
2022-11-24T00:15:31.514Z,30.12
2022-11-24T00:17:36.085Z,30.17
2022-11-24T00:19:40.692Z,30.41
2022-11-24T00:21:45.288Z,30.31
2022-11-24T00:23:49.835Z,30.24
2022-11-24T00:25:54.412Z,30.26
2022-11-24T00:27:59.029Z,30.52
2022-11-24T00:30:03.629Z,30.23
2022-11-24T00:32:08.275Z,30.45
2022-11-24T00:34:12.887Z,30.35
2022-11-24T00:36:17.608Z,30.42
2022-11-24T00:38:22.177Z,30.3
2022-11-24T00:40:33.661Z,30.29
2022-11-24T00:42:39.440Z,30.25
2022-11-24T00:44:44.044Z,30.18
2022-11-24T00:46:49.239Z,30.28
2022-11-24T00:48:53.892Z,30.16
2022-11-24T00:50:58.506Z,30.15
2022-11-24T00:53:03.077Z,30.13
2022-11-24T00:55:07.777Z,30.1
2022-11-24T00:57:12.396Z,30.2
2022-11-24T00:59:16.984Z,30.08
2022-11-24T01:01:21.915Z,30.13
2022-11-24T01:03:26.713Z,30.24
2022-11-24T01:05:31.336Z,30.3
2022-11-24T01:07:36.193Z,30.26
2022-11-24T01:09:40.804Z,30.3
2022-11-24T01:11:45.402Z,30.44
2022-11-24T01:13:50.009Z,30.28
2022-11-24T01:15:54.868Z,30.88
2022-11-24T01:17:59.537Z,30.37
2022-11-24T01:20:04.194Z,30.23
2022-11-24T01:22:08.856Z,30.35
2022-11-24T01:24:13.424Z,30.37
2022-11-24T01:26:17.974Z,30.38
2022-11-24T01:28:22.575Z,30.31
2022-11-24T01:30:27.146Z,30.45
2022-11-24T01:32:31.693Z,30.35
2022-11-24T01:34:36.964Z,30.59
2022-11-24T01:36:41.573Z,30.7
2022-11-24T01:38:46.139Z,30.72
2022-11-24T01:40:50.745Z,30.77
2022-11-24T01:42:55.357Z,30.59
2022-11-24T01:44:59.906Z,30.5
2022-11-24T01:47:04.678Z,30.69
2022-11-24T01:49:09.225Z,30.75
2022-11-24T01:51:13.950Z,30.79
2022-11-24T01:53:18.525Z,30.79
2022-11-24T01:55:23.105Z,30.82
2022-11-24T01:57:27.736Z,30.62
2022-11-24T01:59:32.296Z,30.78
2022-11-24T02:01:37.111Z,30.91
2022-11-24T02:03:41.882Z,30.79
2022-11-24T02:05:46.469Z,30.69
2022-11-24T02:07:51.414Z,30.74
2022-11-24T02:09:56.048Z,30.77
2022-11-24T02:12:00.608Z,31.14
2022-11-24T02:14:05.210Z,30.62
2022-11-24T02:16:10.046Z,30.55
2022-11-24T02:18:14.714Z,30.47
2022-11-24T02:20:19.319Z,30.5
2022-11-24T02:22:23.921Z,30.71
2022-11-24T02:24:28.520Z,31.44
2022-11-24T02:26:33.268Z,31.35
2022-11-24T02:28:37.850Z,31.37
2022-11-24T02:30:42.704Z,31.12
2022-11-24T02:32:47.316Z,31.08
2022-11-24T02:34:51.937Z,31.41
2022-11-24T02:36:56.525Z,31.16
2022-11-24T02:39:01.124Z,30.78
2022-11-24T02:41:05.701Z,30.72
2022-11-24T02:43:10.318Z,30.98
2022-11-24T02:45:14.959Z,30.58
2022-11-24T02:47:19.639Z,30.92
2022-11-24T02:49:24.240Z,31.4
2022-11-24T02:51:28.829Z,30.97
2022-11-24T02:53:33.423Z,31
2022-11-24T02:55:38.025Z,30.85
2022-11-24T02:57:42.625Z,31.06
2022-11-24T02:59:47.227Z,31.03
2022-11-24T03:01:52.113Z,31.09
2022-11-24T03:03:56.865Z,31.04
2022-11-24T03:06:01.446Z,30.82
2022-11-24T03:08:06.109Z,30.99
2022-11-24T03:10:10.727Z,30.88
2022-11-24T03:12:15.307Z,31.07
2022-11-24T03:14:19.887Z,30.97
2022-11-24T03:16:24.661Z,31.2
2022-11-24T03:18:29.311Z,30.95
2022-11-24T03:20:33.867Z,30.76
2022-11-24T03:22:38.464Z,30.98
2022-11-24T03:24:43.150Z,31.03
2022-11-24T03:26:47.785Z,31.03
2022-11-24T03:28:52.341Z,31.14
2022-11-24T03:30:57.155Z,30.88
2022-11-24T03:33:01.795Z,30.97
2022-11-24T03:35:06.375Z,31.05
2022-11-24T03:37:10.924Z,31.21
2022-11-24T03:39:15.526Z,31.06
2022-11-24T03:41:20.119Z,31.02
2022-11-24T03:43:24.720Z,30.86
2022-11-24T03:45:48.331Z,31.04
2022-11-24T03:47:52.958Z,30.91
2022-11-24T03:49:57.621Z,30.84
2022-11-24T03:52:09.603Z,30.88
2022-11-24T03:54:14.265Z,30.84
2022-11-24T03:56:18.829Z,30.77
2022-11-24T03:58:23.536Z,31.03
2022-11-24T04:00:28.161Z,31.08
2022-11-24T04:02:33.100Z,31.06
2022-11-24T04:04:37.969Z,31.01
2022-11-24T04:06:42.601Z,31.09
2022-11-24T04:08:47.187Z,31.05
2022-11-24T04:10:51.930Z,31.04
2022-11-24T04:12:56.483Z,30.95
2022-11-24T04:15:01.088Z,31.09
2022-11-24T04:17:05.664Z,31.17
2022-11-24T04:19:10.238Z,31.38
2022-11-24T04:21:14.843Z,31.45
2022-11-24T04:23:19.478Z,31.59
2022-11-24T04:25:24.127Z,31.08
2022-11-24T04:27:28.725Z,31.19
2022-11-24T04:29:33.341Z,31.16
2022-11-24T04:31:38.108Z,31.46
2022-11-24T04:33:42.810Z,31.48
2022-11-24T04:35:47.545Z,31.48
2022-11-24T04:37:52.164Z,31.5
2022-11-24T04:39:56.771Z,31.72
2022-11-24T04:42:01.338Z,32.64
2022-11-24T04:44:05.907Z,32.86
2022-11-24T04:46:10.751Z,36.23
2022-11-24T04:48:15.417Z,37.52
2022-11-24T04:50:20.007Z,40.17
2022-11-24T04:52:24.794Z,37.63
2022-11-24T04:54:29.338Z,35.87
2022-11-24T04:56:33.937Z,39.39
2022-11-24T04:58:38.528Z,37.48
2022-11-24T05:00:43.167Z,36.74
2022-11-24T05:02:47.801Z,38.14
2022-11-24T05:04:52.382Z,36.78
2022-11-24T05:06:56.937Z,38.19
2022-11-24T05:09:01.479Z,39.34
2022-11-24T05:11:06.052Z,38.31
2022-11-24T05:13:10.464Z,38.35
2022-11-24T05:15:14.906Z,40.28
2022-11-24T05:17:19.367Z,38.62
2022-11-24T05:19:25.377Z,38.75
2022-11-24T05:21:31.873Z,38.82
2022-11-24T05:23:36.367Z,40.59
2022-11-24T05:25:48.517Z,39.29
2022-11-24T05:27:53.029Z,39.2
2022-11-24T05:29:57.562Z,39.56
2022-11-24T05:32:02.100Z,39.14
2022-11-24T05:34:06.551Z,37.08
2022-11-24T05:36:10.972Z,39.01
2022-11-24T05:38:15.438Z,39.34
2022-11-24T05:40:19.940Z,38.75
2022-11-24T05:42:24.444Z,39.9
2022-11-24T05:44:29.055Z,39.04
2022-11-24T05:46:33.990Z,39.49
2022-11-24T05:48:38.538Z,39.32
2022-11-24T05:50:43.028Z,39.55
2022-11-24T05:52:47.500Z,40.05
2022-11-24T05:54:51.835Z,41.04
2022-11-24T05:56:56.158Z,39.49
2022-11-24T05:59:03.114Z,40.26
2022-11-24T06:01:09.874Z,38.85
2022-11-24T06:03:14.386Z,40
2022-11-24T06:05:18.729Z,38.14
2022-11-24T06:07:23.252Z,38.85
2022-11-24T06:09:27.591Z,41.11
2022-11-24T06:11:31.868Z,40.42
2022-11-24T06:13:36.945Z,40
2022-11-24T06:15:41.442Z,40.42
2022-11-24T06:17:45.762Z,39.76
2022-11-24T06:19:50.043Z,41.02
2022-11-24T06:21:54.356Z,41.36
2022-11-24T06:23:58.747Z,42.52
2022-11-24T06:26:03.040Z,43.94
2022-11-24T06:28:07.383Z,43.79
2022-11-24T06:30:11.863Z,42.83
2022-11-24T06:32:16.185Z,43.11
2022-11-24T06:34:20.574Z,43.63
2022-11-24T06:36:24.914Z,43.5
2022-11-24T06:38:29.331Z,44.14
2022-11-24T06:40:33.627Z,43.5
2022-11-24T06:42:37.931Z,44.26
2022-11-24T06:44:42.204Z,43.82
2022-11-24T06:46:46.491Z,41.34
2022-11-24T06:48:50.805Z,42.45
2022-11-24T06:50:55.106Z,40.2
2022-11-24T06:52:59.409Z,38
2022-11-24T06:55:03.705Z,36.95
2022-11-24T06:57:08.068Z,37.06
2022-11-24T06:59:12.467Z,38.07
2022-11-24T07:01:17.194Z,38.71
2022-11-24T07:03:21.871Z,39.01
2022-11-24T07:05:26.257Z,38.39
2022-11-24T07:07:30.772Z,38.99
2022-11-24T07:09:35.112Z,39.73
2022-11-24T07:11:39.428Z,38.63
2022-11-24T07:13:43.740Z,42.41
2022-11-24T07:15:48.069Z,40.9
2022-11-24T07:17:52.392Z,43.1
2022-11-24T07:19:56.705Z,38.64
2022-11-24T07:22:00.999Z,39.39
2022-11-24T07:24:05.303Z,40.06
2022-11-24T07:26:09.666Z,40.81
2022-11-24T07:28:13.970Z,40.03
2022-11-24T07:30:18.301Z,39.36
2022-11-24T07:32:22.907Z,41.74
2022-11-24T07:34:27.264Z,43.34
2022-11-24T07:36:31.554Z,42.93
2022-11-24T07:38:35.873Z,42.58
2022-11-24T07:40:40.256Z,42.62
2022-11-24T07:42:44.587Z,41.88
2022-11-24T07:44:48.908Z,43.02
2022-11-24T07:46:53.164Z,43
2022-11-24T07:48:57.471Z,39.44
2022-11-24T07:51:01.788Z,43.29
2022-11-24T07:53:06.063Z,43.89
2022-11-24T07:55:10.320Z,43.04
2022-11-24T07:57:14.618Z,42.87
2022-11-24T07:59:18.944Z,43.22
2022-11-24T08:01:23.721Z,42.87
2022-11-24T08:03:28.380Z,42.74
2022-11-24T08:05:32.746Z,42.81
2022-11-24T08:07:37.357Z,42.99
2022-11-24T08:09:41.731Z,43.38
2022-11-24T08:11:46.092Z,43.11
2022-11-24T08:13:50.400Z,43.35
2022-11-24T08:15:54.723Z,43.34
2022-11-24T08:17:59.072Z,43.17
2022-11-24T08:20:03.393Z,43.59
2022-11-24T08:22:07.748Z,43.14
2022-11-24T08:24:12.122Z,42.13
2022-11-24T08:26:16.444Z,43.26
2022-11-24T08:28:20.760Z,42.51
2022-11-24T08:30:25.363Z,42.11
2022-11-24T08:32:29.898Z,42.8
2022-11-24T08:34:35.409Z,40.35
2022-11-24T08:36:39.948Z,42.27
2022-11-24T08:38:44.311Z,41.82
2022-11-24T08:40:48.672Z,43.75
2022-11-24T08:42:52.986Z,43.43
2022-11-24T08:45:20.205Z,43.05
2022-11-24T08:47:24.908Z,43.38
2022-11-24T08:49:29.326Z,43.44
2022-11-24T08:51:33.678Z,43.25
2022-11-24T08:53:37.979Z,39.25
2022-11-24T08:55:42.374Z,42.84
2022-11-24T08:57:46.721Z,42.48
2022-11-24T08:59:51.058Z,38.21
2022-11-24T09:01:55.655Z,41.46
2022-11-24T09:04:00.343Z,41.31
2022-11-24T09:06:04.716Z,42.74
2022-11-24T09:08:09.086Z,41.22
2022-11-24T09:10:13.386Z,39.85
2022-11-24T09:12:17.748Z,42.76
2022-11-24T09:14:22.047Z,41.87
2022-11-24T09:16:26.635Z,41.38
2022-11-24T09:18:32.620Z,38.25
2022-11-24T09:20:37.006Z,40.08
2022-11-24T09:22:41.300Z,40.23
2022-11-24T09:24:45.636Z,38.86
2022-11-24T09:26:50.043Z,39.65
2022-11-24T09:28:54.432Z,39.6
2022-11-24T09:30:59.083Z,40.08
2022-11-24T09:33:03.456Z,37.43
2022-11-24T09:35:07.826Z,40.13
2022-11-24T09:37:12.158Z,41.48
2022-11-24T09:39:16.476Z,41.56
2022-11-24T09:41:20.796Z,41.06
2022-11-24T09:43:25.164Z,41.07
2022-11-24T09:46:06.776Z,41.19
2022-11-24T09:48:11.259Z,42.11
2022-11-24T09:50:15.624Z,41.39
2022-11-24T09:52:19.922Z,40.94
2022-11-24T09:54:24.276Z,40.7
2022-11-24T09:56:28.635Z,42.37
2022-11-24T09:58:33.013Z,41.25
2022-11-24T10:00:37.343Z,41.25
2022-11-24T10:02:41.673Z,41.82
2022-11-24T10:04:46.337Z,40.86
2022-11-24T10:06:50.752Z,41.58
2022-11-24T10:08:55.136Z,41.84
2022-11-24T10:10:59.449Z,41.98
2022-11-24T10:13:03.838Z,41.59
2022-11-24T10:15:08.172Z,43.1
2022-11-24T10:17:12.501Z,42.08
2022-11-24T10:19:16.962Z,41.48
2022-11-24T10:21:21.423Z,41.51
2022-11-24T10:23:25.711Z,40.64
2022-11-24T10:25:30.099Z,41.65
2022-11-24T10:27:34.509Z,40.08
2022-11-24T10:29:39.212Z,40.18
2022-11-24T10:31:43.651Z,36.67
2022-11-24T10:33:48.043Z,37.48
2022-11-24T10:35:52.458Z,36.77
2022-11-24T10:37:56.796Z,40.19
2022-11-24T10:40:02.467Z,38.12
2022-11-24T10:42:06.802Z,42.33
2022-11-24T10:44:11.466Z,39.98
2022-11-24T10:46:16.053Z,40.69
2022-11-24T10:48:20.425Z,41.09
2022-11-24T10:50:24.755Z,40.2
2022-11-24T10:52:29.045Z,40.85
2022-11-24T10:54:33.354Z,41.03
2022-11-24T10:56:37.700Z,42.12
2022-11-24T10:58:42.003Z,39.35
2022-11-24T11:00:46.349Z,41.54
2022-11-24T11:02:50.913Z,41.54
2022-11-24T11:04:55.288Z,42.71
2022-11-24T11:06:59.608Z,43.41
2022-11-24T11:09:03.936Z,42.56
2022-11-24T11:11:08.262Z,42.65
2022-11-24T11:13:12.608Z,42.11
2022-11-24T11:15:16.935Z,42.82
2022-11-24T11:17:21.435Z,43.82
2022-11-24T11:19:53.342Z,38.33
2022-11-24T11:21:59.891Z,38.52
2022-11-24T11:24:04.205Z,40.5
2022-11-24T11:26:08.535Z,39.67
2022-11-24T11:28:20.104Z,42.35
2022-11-24T11:31:24.672Z,43.33
2022-11-24T11:34:09.311Z,43.22
2022-11-24T11:36:15.013Z,43.1
2022-11-24T11:38:19.401Z,43.61
2022-11-24T11:40:23.701Z,43.49
2022-11-24T11:43:04.270Z,42.14
2022-11-24T11:45:08.606Z,43.13
2022-11-24T11:47:13.324Z,42.78
2022-11-24T11:49:17.689Z,39.67
2022-11-24T11:51:26.715Z,43.14
2022-11-24T11:53:31.155Z,43.37
2022-11-24T11:55:35.564Z,42.54
2022-11-24T11:57:39.894Z,42.96
2022-11-24T11:59:44.231Z,42.69
2022-11-24T12:01:48.569Z,42.64
2022-11-24T12:03:53.421Z,40.34
2022-11-24T12:05:57.812Z,38.31
2022-11-24T12:08:16.077Z,40.71
2022-11-24T12:10:23.639Z,39.54
2022-11-24T12:12:27.950Z,42.54
2022-11-24T12:14:32.248Z,41.38
2022-11-24T12:16:36.776Z,42.4
2022-11-24T12:19:11.156Z,41.03
2022-11-24T12:21:16.422Z,41.09
2022-11-24T12:23:22.392Z,41.94
2022-11-24T12:25:26.729Z,41.18
2022-11-24T12:27:33.694Z,42.98
2022-11-24T12:29:38.906Z,42.64
2022-11-24T12:31:43.428Z,42.79
2022-11-24T12:34:01.447Z,43.39
2022-11-24T12:36:05.937Z,41.85
2022-11-24T12:38:10.223Z,41.17
2022-11-24T12:40:14.586Z,41.82
2022-11-24T12:42:18.995Z,42.54
2022-11-24T12:44:23.361Z,40.48
2022-11-24T12:46:28.052Z,39.84
2022-11-24T12:48:32.422Z,39.08
2022-11-24T12:50:36.729Z,43.02
2022-11-24T12:52:41.067Z,39.16
2022-11-24T12:54:45.401Z,41.02
2022-11-24T12:56:49.729Z,39.37
2022-11-24T12:58:54.097Z,39.8
2022-11-24T13:00:58.423Z,44.09
2022-11-24T13:03:03.494Z,42.87
2022-11-24T13:05:07.854Z,44.8
2022-11-24T13:07:12.422Z,44.85
2022-11-24T13:09:16.865Z,44.34
2022-11-24T13:11:21.204Z,44.14
2022-11-24T13:13:25.615Z,45.53
2022-11-24T13:16:06.967Z,45.43
2022-11-24T13:18:18.077Z,45.24
2022-11-24T13:20:22.441Z,44.64
2022-11-24T13:22:26.782Z,44.31
2022-11-24T13:24:31.114Z,44.76
2022-11-24T13:26:42.652Z,44.84
2022-11-24T13:29:25.115Z,45.05
2022-11-24T13:31:30.111Z,42.89
2022-11-24T13:33:34.633Z,43.96
2022-11-24T13:35:38.978Z,39.48
2022-11-24T13:37:43.285Z,40.38
2022-11-24T13:39:52.462Z,43.92
2022-11-24T13:41:56.819Z,40.73
2022-11-24T13:44:01.192Z,43.79
2022-11-24T13:46:05.506Z,42.28
2022-11-24T13:48:09.882Z,40.2
2022-11-24T13:50:14.396Z,44
2022-11-24T13:52:18.802Z,46.07
2022-11-24T13:54:23.134Z,45.69
2022-11-24T13:56:27.540Z,44.96
2022-11-24T13:58:31.876Z,47.13
2022-11-24T14:00:36.275Z,46.62
2022-11-24T14:02:40.775Z,43.41
2022-11-24T14:04:46.626Z,44.92
2022-11-24T14:06:51.260Z,44.03
2022-11-24T14:08:55.723Z,47.57
2022-11-24T14:11:00.041Z,49.04
2022-11-24T14:13:04.418Z,45.37
2022-11-24T14:15:08.730Z,45.61
2022-11-24T14:17:13.085Z,45.53
2022-11-24T14:19:17.438Z,46.21
2022-11-24T14:21:21.931Z,44.23
2022-11-24T14:23:26.282Z,44.08
2022-11-24T14:25:30.603Z,43.54
2022-11-24T14:27:34.940Z,45.5
2022-11-24T14:29:39.250Z,44.74
2022-11-24T14:31:44.013Z,44.68
2022-11-24T14:33:48.384Z,45.88
2022-11-24T14:35:52.750Z,45.7
2022-11-24T14:37:57.095Z,45.67
2022-11-24T14:40:01.393Z,45.75
2022-11-24T14:42:05.881Z,45.3
2022-11-24T14:44:10.456Z,44.68
2022-11-24T14:46:15.253Z,45.92
2022-11-24T14:48:19.650Z,46.3
2022-11-24T14:50:24.259Z,43.38
2022-11-24T14:52:28.611Z,45.75
2022-11-24T14:54:33.754Z,46.1
2022-11-24T14:56:38.311Z,46.69
2022-11-24T14:58:44.630Z,46.05
2022-11-24T15:00:49.177Z,45.5
2022-11-24T15:02:53.550Z,45.7
2022-11-24T15:05:06.343Z,44.93
2022-11-24T15:07:11.010Z,44.19
2022-11-24T15:09:15.377Z,44.07
2022-11-24T15:11:19.834Z,46.03
2022-11-24T15:13:24.152Z,44.41
2022-11-24T15:15:28.523Z,44.91
2022-11-24T15:17:32.895Z,44.38
2022-11-24T15:19:37.188Z,43.6
2022-11-24T15:21:41.569Z,44.03
2022-11-24T15:23:45.898Z,44.18
2022-11-24T15:25:50.248Z,43.53
2022-11-24T15:27:54.608Z,43.57
2022-11-24T15:29:58.962Z,45.5
2022-11-24T15:32:03.539Z,46.95
2022-11-24T15:34:07.859Z,45.85
2022-11-24T15:36:12.204Z,46.27
2022-11-24T15:38:16.551Z,46.22
2022-11-24T15:40:20.894Z,45.48
2022-11-24T15:42:25.237Z,45.69
2022-11-24T15:44:29.580Z,45.43
2022-11-24T15:46:34.147Z,45.58
2022-11-24T15:48:38.534Z,45.61
2022-11-24T15:50:42.828Z,45.86
2022-11-24T15:52:47.128Z,45.74
2022-11-24T15:54:51.487Z,45.68
2022-11-24T15:56:55.788Z,46.32
2022-11-24T15:59:00.200Z,46.37
2022-11-24T16:01:04.811Z,45.44
2022-11-24T16:03:49.306Z,44.89
2022-11-24T16:05:53.826Z,45.57
2022-11-24T16:07:58.482Z,45.68
2022-11-24T16:10:02.992Z,44.46
2022-11-24T16:12:07.407Z,44.93
2022-11-24T16:14:12.055Z,44.36
2022-11-24T16:16:16.739Z,42.46
2022-11-24T16:18:21.090Z,42.18
2022-11-24T16:20:25.437Z,41.46
2022-11-24T16:22:29.901Z,41.71
2022-11-24T16:24:35.676Z,41.5
2022-11-24T16:26:40.277Z,41.39
2022-11-24T16:28:44.589Z,41.22
2022-11-24T16:30:48.944Z,41.08
2022-11-24T16:32:53.442Z,41.06
2022-11-24T16:34:57.814Z,40.73
2022-11-24T16:37:02.174Z,40.71
2022-11-24T16:39:06.491Z,40.89
2022-11-24T16:41:10.862Z,41.14
2022-11-24T16:43:15.216Z,41.27
2022-11-24T16:45:19.552Z,40.92
2022-11-24T16:47:23.887Z,41.24
2022-11-24T16:49:28.224Z,41.31
2022-11-24T16:51:37.002Z,41.36
2022-11-24T16:53:41.330Z,41.42
2022-11-24T16:55:45.702Z,41.25
2022-11-24T16:57:50.017Z,41.35
2022-11-24T16:59:54.369Z,41.24
2022-11-24T17:01:58.901Z,41.41
2022-11-24T17:04:05.995Z,39.03
2022-11-24T17:06:11.409Z,37.92
2022-11-24T17:08:15.846Z,36.88
2022-11-24T17:10:20.167Z,36.36
2022-11-24T17:12:24.515Z,35.94
2022-11-24T17:14:28.810Z,35.5
2022-11-24T17:16:33.327Z,35.31
2022-11-24T17:18:38.198Z,34.72
2022-11-24T17:20:42.589Z,34.45
2022-11-24T17:22:46.948Z,34.21
2022-11-24T17:24:51.306Z,34.17
2022-11-24T17:26:55.739Z,33.93
2022-11-24T17:29:00.159Z,33.8
2022-11-24T17:31:04.617Z,33.6
2022-11-24T17:33:09.078Z,33.64
2022-11-24T17:35:13.465Z,33.25
2022-11-24T17:37:17.929Z,33.42
2022-11-24T17:39:26.982Z,33.43
2022-11-24T17:41:31.341Z,33.32
2022-11-24T17:43:35.788Z,32.64
2022-11-24T17:45:40.333Z,33.16
2022-11-24T17:47:44.754Z,33.28
2022-11-24T17:49:49.112Z,33.69
2022-11-24T17:51:53.629Z,33.75
2022-11-24T17:53:58.030Z,33.96
2022-11-24T17:56:02.403Z,34.04
2022-11-24T17:58:06.817Z,35.11
2022-11-24T18:00:11.167Z,35.93
2022-11-24T18:02:15.776Z,36.68
2022-11-24T18:04:20.210Z,36.97
2022-11-24T18:06:24.604Z,35.73
2022-11-24T18:08:29.018Z,34.83
2022-11-24T18:10:33.442Z,34.7
2022-11-24T18:12:37.869Z,34.37
2022-11-24T18:14:42.254Z,34.52
2022-11-24T18:16:46.864Z,34.43
2022-11-24T18:19:09.258Z,34.26
2022-11-24T18:21:14.004Z,35.21
2022-11-24T18:23:18.497Z,35.76
2022-11-24T18:25:22.883Z,36.28
2022-11-24T18:27:27.289Z,36.77
2022-11-24T18:29:31.758Z,37.08
2022-11-24T18:31:37.199Z,37.83
2022-11-24T18:33:41.713Z,37.89
2022-11-24T18:35:46.148Z,37.77
2022-11-24T18:37:50.563Z,38.23
2022-11-24T18:39:54.987Z,38.66
2022-11-24T18:41:59.467Z,39.6
2022-11-24T18:44:04.029Z,40.06
2022-11-24T18:46:08.814Z,40.33
2022-11-24T18:48:13.313Z,40.54
2022-11-24T18:50:17.775Z,38.32
2022-11-24T18:52:22.174Z,38.47
2022-11-24T18:54:26.581Z,39.45
2022-11-24T18:56:31.051Z,40.92
2022-11-24T18:58:35.437Z,41.66
2022-11-24T19:00:39.808Z,41.17
2022-11-24T19:02:44.391Z,42.09
2022-11-24T19:04:48.822Z,41.75
2022-11-24T19:06:53.284Z,41.94
2022-11-24T19:08:57.728Z,42.15
2022-11-24T19:11:02.183Z,42.33
2022-11-24T19:13:06.561Z,41.69
2022-11-24T19:15:10.940Z,41.65
2022-11-24T19:17:15.369Z,41.23
2022-11-24T19:19:19.816Z,41.43
2022-11-24T19:21:24.301Z,41.22
2022-11-24T19:23:28.777Z,41.31
2022-11-24T19:25:33.218Z,41.07
2022-11-24T19:27:37.632Z,41.02
2022-11-24T19:29:45.102Z,40.69
2022-11-24T19:31:49.741Z,40.63
2022-11-24T19:33:54.208Z,40.69
2022-11-24T19:35:58.608Z,40.8
2022-11-24T19:38:03.074Z,40.42
2022-11-24T19:40:07.500Z,40.18
2022-11-24T19:42:11.926Z,40.49
2022-11-24T19:44:16.325Z,40.71
2022-11-24T19:46:20.931Z,40.51
2022-11-24T19:48:25.363Z,40.36
2022-11-24T19:50:29.729Z,40.3
2022-11-24T19:52:34.102Z,39.73
2022-11-24T19:54:38.981Z,39.88
2022-11-24T19:56:43.381Z,39.44
2022-11-24T19:58:47.737Z,39.6
2022-11-24T20:00:52.362Z,39.56
2022-11-24T20:02:56.924Z,39.37
2022-11-24T20:05:01.320Z,39.42
2022-11-24T20:07:05.659Z,39.5
2022-11-24T20:09:09.957Z,39.37
2022-11-24T20:11:14.275Z,39.23
2022-11-24T20:13:18.703Z,38.95
2022-11-24T20:15:23.072Z,39.04
2022-11-24T20:17:27.499Z,39.18
2022-11-24T20:19:31.956Z,39.12
2022-11-24T20:21:36.336Z,39.32
2022-11-24T20:23:40.776Z,39.23
2022-11-24T20:25:45.167Z,39.15
2022-11-24T20:27:49.575Z,39.36
2022-11-24T20:29:53.986Z,39.35
2022-11-24T20:31:58.933Z,39.02
2022-11-24T20:34:03.485Z,39.24
2022-11-24T20:36:07.900Z,39.34
2022-11-24T20:38:12.362Z,39.35
2022-11-24T20:40:16.736Z,38.97
2022-11-24T20:42:21.122Z,39.11
2022-11-24T20:44:25.525Z,39.08
2022-11-24T20:46:29.945Z,39.05
2022-11-24T20:48:34.392Z,39.25
2022-11-24T20:50:38.791Z,39.29
2022-11-24T20:52:43.287Z,39.29
2022-11-24T20:54:47.684Z,39.12
2022-11-24T20:56:52.103Z,39
2022-11-24T20:58:56.533Z,39.04
2022-11-24T21:01:01.592Z,39.03
2022-11-24T21:03:06.038Z,39.08
2022-11-24T21:05:10.450Z,39.01
2022-11-24T21:07:15.092Z,38.89
2022-11-24T21:09:19.523Z,38.98
2022-11-24T21:11:23.925Z,38.99
2022-11-24T21:13:28.320Z,38.99
2022-11-24T21:15:32.650Z,39.01
2022-11-24T21:17:37.041Z,39.03
2022-11-24T21:19:41.429Z,39.09
2022-11-24T21:21:45.813Z,38.88
2022-11-24T21:23:50.220Z,38.84
2022-11-24T21:25:54.604Z,38.89
2022-11-24T21:27:59.021Z,38.94
2022-11-24T21:30:03.428Z,38.87
2022-11-24T21:32:08.058Z,38.95
2022-11-24T21:34:12.522Z,38.9
2022-11-24T21:36:16.889Z,38.89
2022-11-24T21:38:21.259Z,39.11
2022-11-24T21:40:25.661Z,39.2
2022-11-24T21:42:30.077Z,38.84
2022-11-24T21:44:35.825Z,38.64
2022-11-24T21:46:56.181Z,38.62
2022-11-24T21:49:00.745Z,38.6
2022-11-24T21:51:05.167Z,38.54
2022-11-24T21:53:09.640Z,38.25
2022-11-24T21:55:14.037Z,38.47
2022-11-24T21:57:18.496Z,38.35
2022-11-24T21:59:22.895Z,38.59
2022-11-24T22:01:27.641Z,38.72
2022-11-24T22:03:32.070Z,38.64
2022-11-24T22:05:36.458Z,38.65
2022-11-24T22:07:41.094Z,38.44
2022-11-24T22:09:45.510Z,38.42
2022-11-24T22:11:49.856Z,38.4
2022-11-24T22:13:54.256Z,38.38
2022-11-24T22:15:58.820Z,38.49
2022-11-24T22:18:03.245Z,38.48
2022-11-24T22:20:07.608Z,38.37
2022-11-24T22:22:12.017Z,38.62
2022-11-24T22:24:16.437Z,38.72
2022-11-24T22:26:20.831Z,38.69
2022-11-24T22:28:25.258Z,38.62
2022-11-24T22:30:29.699Z,38.67
2022-11-24T22:32:34.064Z,38.93
2022-11-24T22:34:39.267Z,38.11
2022-11-24T22:36:43.664Z,36.21
2022-11-24T22:38:48.097Z,35.53
2022-11-24T22:40:52.520Z,34.81
2022-11-24T22:42:56.942Z,34.44
2022-11-24T22:45:01.436Z,34.35
2022-11-24T22:47:05.847Z,34.05
2022-11-24T22:49:10.224Z,33.98
2022-11-24T22:51:14.586Z,33.73
2022-11-24T22:53:18.942Z,33.69
2022-11-24T22:55:23.295Z,33.47
2022-11-24T22:57:27.698Z,33.45
2022-11-24T22:59:32.131Z,33.38
2022-11-24T23:01:36.515Z,33.35
2022-11-24T23:03:41.110Z,33.45
2022-11-24T23:05:45.523Z,33.49
2022-11-24T23:07:50.175Z,33.61
2022-11-24T23:09:54.612Z,33.53
2022-11-24T23:11:59.019Z,33.5
2022-11-24T23:14:03.501Z,33.46
2022-11-24T23:16:08.004Z,33.43
2022-11-24T23:18:12.387Z,33.4
2022-11-24T23:20:16.755Z,33.39
2022-11-24T23:22:21.117Z,33.58
2022-11-24T23:24:25.527Z,33.57
2022-11-24T23:26:29.895Z,33.52
2022-11-24T23:28:34.261Z,33.55
2022-11-24T23:30:38.669Z,33.54
2022-11-24T23:32:43.092Z,33.49
2022-11-24T23:34:47.464Z,33.55
2022-11-24T23:36:51.819Z,33.57
2022-11-24T23:38:56.234Z,33.61
2022-11-24T23:41:00.614Z,33.71
2022-11-24T23:43:04.977Z,33.66
2022-11-24T23:45:09.363Z,33.7
2022-11-24T23:47:13.747Z,33.71
2022-11-24T23:49:18.166Z,33.74
2022-11-24T23:51:22.584Z,33.85
2022-11-24T23:53:27.071Z,33.93
2022-11-24T23:55:31.454Z,33.99
2022-11-24T23:57:35.819Z,33.94
2022-11-24T23:59:40.360Z,34.03
